createdAt,value
2023-04-03T00:01:19.911Z,98749.77
2023-04-03T00:04:08.194Z,98746.12
2023-04-03T00:06:42.620Z,98746.84
2023-04-03T00:09:13.445Z,98748.30
2023-04-03T00:11:43.144Z,98746.68
2023-04-03T00:14:11.539Z,98744.90
2023-04-03T00:16:58.068Z,98746.98
2023-04-03T00:19:26.942Z,98744.80
2023-04-03T00:21:55.615Z,98747.48
2023-04-03T00:24:23.982Z,98748.05
2023-04-03T00:26:59.891Z,98747.17
2023-04-03T00:29:29.173Z,98749.30
2023-04-03T00:31:57.703Z,98745.42
2023-04-03T00:34:27.053Z,98749.96
2023-04-03T00:36:56.246Z,98746.50
2023-04-03T00:39:25.665Z,98748.00
2023-04-03T00:41:57.472Z,98749.67
2023-04-03T00:44:33.946Z,98740.63
2023-04-03T00:47:06.572Z,98742.46
2023-04-03T00:49:35.100Z,98739.63
2023-04-03T00:52:03.384Z,98744.29
2023-04-03T00:54:32.456Z,98739.89
2023-04-03T00:57:01.048Z,98739.79
2023-04-03T00:59:32.444Z,98739.90
2023-04-03T01:02:01.842Z,98737.52
2023-04-03T01:04:32.358Z,98738.58
2023-04-03T01:07:23.066Z,98734.27
2023-04-03T01:09:53.215Z,98734.05
2023-04-03T01:12:36.347Z,98736.52
2023-04-03T01:15:09.226Z,98734.09
2023-04-03T01:17:45.874Z,98733.58
2023-04-03T01:20:33.222Z,98734.91
2023-04-03T01:23:13.286Z,98738.79
2023-04-03T01:25:52.755Z,98739.18
2023-04-03T01:28:33.150Z,98739.52
2023-04-03T01:31:12.275Z,98735.35
2023-04-03T01:33:41.443Z,98737.41
2023-04-03T01:36:09.797Z,98734.12
2023-04-03T01:38:40.132Z,98737.73
2023-04-03T01:41:08.914Z,98733.98
2023-04-03T01:43:37.424Z,98732.70
2023-04-03T01:46:06.802Z,98733.13
2023-04-03T01:48:36.579Z,98730.86
2023-04-03T01:51:04.801Z,98732.19
2023-04-03T01:53:33.752Z,98733.55
2023-04-03T01:56:02.227Z,98735.80
2023-04-03T01:58:31.707Z,98731.55
2023-04-03T02:01:00.021Z,98729.89
2023-04-03T02:03:29.652Z,98728.34
2023-04-03T02:05:58.772Z,98727.36
2023-04-03T02:08:28.022Z,98730.23
2023-04-03T02:10:56.509Z,98731.23
2023-04-03T02:13:24.960Z,98734.45
2023-04-03T02:15:53.236Z,98735.98
2023-04-03T02:18:21.676Z,98735.05
2023-04-03T02:20:54.045Z,98741.46
2023-04-03T02:23:22.761Z,98739.41
2023-04-03T02:25:52.699Z,98740.21
2023-04-03T02:28:22.464Z,98740.63
2023-04-03T02:30:50.712Z,98744.77
2023-04-03T02:33:22.959Z,98741.64
2023-04-03T02:35:55.786Z,98744.13
2023-04-03T02:38:24.878Z,98745.92
2023-04-03T02:40:54.119Z,98743.55
2023-04-03T02:43:22.535Z,98744.37
2023-04-03T02:45:51.331Z,98743.84
2023-04-03T02:48:20.005Z,98744.44
2023-04-03T02:50:48.442Z,98743.16
2023-04-03T02:53:17.154Z,98743.29
2023-04-03T02:55:46.088Z,98742.14
2023-04-03T02:58:15.811Z,98745.04
2023-04-03T03:00:44.557Z,98741.73
2023-04-03T03:03:15.260Z,98739.02
2023-04-03T03:05:43.566Z,98747.77
2023-04-03T03:08:13.846Z,98750.92
2023-04-03T03:10:42.894Z,98753.98
2023-04-03T03:13:11.396Z,98754.44
2023-04-03T03:15:41.726Z,98748.48
2023-04-03T03:18:10.208Z,98749.93
2023-04-03T03:20:42.403Z,98748.34
2023-04-03T03:23:10.726Z,98747.00
2023-04-03T03:25:40.412Z,98747.40
2023-04-03T03:28:09.374Z,98744.79
2023-04-03T03:30:37.899Z,98746.41
2023-04-03T03:33:06.337Z,98745.16
2023-04-03T03:35:34.707Z,98749.98
2023-04-03T03:38:05.528Z,98751.39
2023-04-03T03:40:34.210Z,98754.25
2023-04-03T03:43:03.089Z,98751.45
2023-04-03T03:45:32.358Z,98752.50
2023-04-03T03:48:00.700Z,98748.00
2023-04-03T03:50:29.985Z,98751.30
2023-04-03T03:52:58.788Z,98753.52
2023-04-03T03:55:27.266Z,98757.02
2023-04-03T03:57:56.286Z,98757.36
2023-04-03T04:00:24.742Z,98756.77
2023-04-03T04:02:57.768Z,98761.95
2023-04-03T04:05:28.032Z,98761.25
2023-04-03T04:07:58.951Z,98765.33
2023-04-03T04:10:27.557Z,98765.36
2023-04-03T04:12:58.421Z,98767.64
2023-04-03T04:15:28.614Z,98770.41
2023-04-03T04:17:58.198Z,98770.60
2023-04-03T04:20:26.747Z,98772.07
2023-04-03T04:22:55.841Z,98771.04
2023-04-03T04:25:24.581Z,98770.68
2023-04-03T04:27:53.442Z,98771.77
2023-04-03T04:30:21.855Z,98773.06
2023-04-03T04:32:52.102Z,98770.80
2023-04-03T04:35:21.219Z,98769.41
2023-04-03T04:37:51.097Z,98775.05
2023-04-03T04:40:20.063Z,98777.56
2023-04-03T04:42:49.395Z,98775.94
2023-04-03T04:45:20.328Z,98777.97
2023-04-03T04:47:52.806Z,98779.11
2023-04-03T04:50:22.223Z,98777.02
2023-04-03T04:52:50.896Z,98774.96
2023-04-03T04:55:19.386Z,98773.99
2023-04-03T04:57:51.911Z,98774.94
2023-04-03T05:00:21.501Z,98777.76
2023-04-03T05:02:51.966Z,98775.91
2023-04-03T05:05:21.122Z,98778.98
2023-04-03T05:07:49.748Z,98782.14
2023-04-03T05:10:18.269Z,98782.08
2023-04-03T05:12:47.068Z,98786.04
2023-04-03T05:15:16.197Z,98784.45
2023-04-03T05:17:46.326Z,98781.20
2023-04-03T05:20:15.355Z,98783.33
2023-04-03T05:22:44.713Z,98784.87
2023-04-03T05:25:13.016Z,98791.54
2023-04-03T05:27:45.428Z,98791.02
2023-04-03T05:30:14.666Z,98792.29
2023-04-03T05:32:43.611Z,98795.83
2023-04-03T05:35:19.146Z,98797.38
2023-04-03T05:37:49.976Z,98799.26
2023-04-03T05:40:19.786Z,98800.70
2023-04-03T05:42:50.828Z,98801.34
2023-04-03T05:45:20.289Z,98805.44
2023-04-03T05:47:48.752Z,98804.95
2023-04-03T05:50:17.403Z,98804.73
2023-04-03T05:52:47.218Z,98809.05
2023-04-03T05:55:16.145Z,98810.34
2023-04-03T05:57:46.041Z,98809.36
2023-04-03T06:00:16.786Z,98810.80
2023-04-03T06:02:50.096Z,98812.03
2023-04-03T06:05:21.402Z,98814.39
2023-04-03T06:07:50.752Z,98817.60
2023-04-03T06:10:19.465Z,98817.48
2023-04-03T06:12:48.347Z,98819.61
2023-04-03T06:15:18.136Z,98820.29
2023-04-03T06:17:50.370Z,98823.00
2023-04-03T06:20:19.072Z,98824.61
2023-04-03T06:22:47.574Z,98824.69
2023-04-03T06:25:18.695Z,98829.95
2023-04-03T06:27:47.169Z,98831.90
2023-04-03T06:30:16.451Z,98833.02
2023-04-03T06:32:46.232Z,98837.65
2023-04-03T06:35:15.476Z,98836.33
2023-04-03T06:37:43.813Z,98837.39
2023-04-03T06:40:21.588Z,98841.91
2023-04-03T06:42:50.241Z,98843.00
2023-04-03T06:45:20.489Z,98844.30
2023-04-03T06:47:49.184Z,98844.90
2023-04-03T06:50:17.973Z,98845.55
2023-04-03T06:52:48.558Z,98849.07
2023-04-03T06:55:17.191Z,98852.07
2023-04-03T06:57:47.376Z,98855.50
2023-04-03T07:00:17.442Z,98854.20
2023-04-03T07:02:54.349Z,98856.38
2023-04-03T07:05:22.942Z,98854.64
2023-04-03T07:07:51.852Z,98857.61
2023-04-03T07:10:21.369Z,98857.65
2023-04-03T07:12:51.506Z,98857.88
2023-04-03T07:15:19.855Z,98858.74
2023-04-03T07:17:48.668Z,98861.55
2023-04-03T07:20:20.005Z,98863.58
2023-04-03T07:22:49.124Z,98866.77
2023-04-03T07:25:17.528Z,98868.04
2023-04-03T07:27:45.885Z,98867.67
2023-04-03T07:30:15.740Z,98870.27
2023-04-03T07:32:46.089Z,98871.02
2023-04-03T07:35:14.330Z,98871.30
2023-04-03T07:37:43.051Z,98869.35
2023-04-03T07:40:11.453Z,98871.80
2023-04-03T07:42:41.543Z,98870.40
2023-04-03T07:45:10.669Z,98871.91
2023-04-03T07:47:40.508Z,98873.63
2023-04-03T07:50:09.611Z,98871.48
2023-04-03T07:52:39.848Z,98874.93
2023-04-03T07:55:09.325Z,98876.35
2023-04-03T07:57:38.699Z,98878.83
2023-04-03T08:00:07.897Z,98881.01
2023-04-03T08:02:43.515Z,98878.88
2023-04-03T08:05:13.281Z,98880.34
2023-04-03T08:07:41.752Z,98878.86
2023-04-03T08:10:10.629Z,98879.77
2023-04-03T08:12:39.327Z,98882.72
2023-04-03T08:15:09.300Z,98884.52
2023-04-03T08:17:38.695Z,98886.27
2023-04-03T08:20:08.386Z,98889.21
2023-04-03T08:22:36.783Z,98889.46
2023-04-03T08:25:05.395Z,98890.50
2023-04-03T08:27:34.057Z,98894.42
2023-04-03T08:30:02.848Z,98896.37
2023-04-03T08:32:36.102Z,98894.35
2023-04-03T08:35:05.868Z,98897.63
2023-04-03T08:37:37.594Z,98899.56
2023-04-03T08:40:07.997Z,98898.50
2023-04-03T08:42:47.267Z,98900.52
2023-04-03T08:45:23.742Z,98906.95
2023-04-03T08:47:52.957Z,98905.06
2023-04-03T08:50:31.239Z,98904.18
2023-04-03T08:53:00.105Z,98905.77
2023-04-03T08:55:49.107Z,98904.52
2023-04-03T08:58:29.308Z,98906.93
2023-04-03T09:01:02.198Z,98909.91
2023-04-03T09:03:33.869Z,98907.95
2023-04-03T09:06:07.776Z,98909.58
2023-04-03T09:08:41.932Z,98912.69
2023-04-03T09:11:30.216Z,98911.15
2023-04-03T09:14:09.469Z,98913.84
2023-04-03T09:16:58.564Z,98913.21
2023-04-03T09:19:27.236Z,98911.02
2023-04-03T09:22:01.082Z,98913.90
2023-04-03T09:24:29.982Z,98918.48
2023-04-03T09:27:06.926Z,98921.64
2023-04-03T09:29:38.048Z,98925.33
2023-04-03T09:32:33.987Z,98923.90
2023-04-03T09:35:19.121Z,98929.02
2023-04-03T09:37:50.744Z,98930.70
2023-04-03T09:40:29.328Z,98930.11
2023-04-03T09:43:02.020Z,98930.39
2023-04-03T09:45:33.154Z,98932.67
2023-04-03T09:48:16.190Z,98926.20
2023-04-03T09:50:56.697Z,98931.45
2023-04-03T09:53:32.763Z,98931.67
2023-04-03T09:56:04.489Z,98930.91
2023-04-03T09:58:49.582Z,98933.14
2023-04-03T10:01:41.250Z,98931.70
2023-04-03T10:04:14.552Z,98936.83
2023-04-03T10:06:47.881Z,98939.77
2023-04-03T10:09:25.305Z,98940.60
2023-04-03T10:12:11.662Z,98940.34
2023-04-03T10:14:42.291Z,98946.51
2023-04-03T10:17:11.261Z,98943.50
2023-04-03T10:19:45.172Z,98949.26
2023-04-03T10:22:22.927Z,98952.17
2023-04-03T10:25:33.391Z,98953.52
2023-04-03T10:28:02.752Z,98953.19
2023-04-03T10:30:31.207Z,98955.25
2023-04-03T10:33:23.480Z,98957.75
2023-04-03T10:36:30.909Z,98961.08
2023-04-03T10:39:02.469Z,98964.41
2023-04-03T10:41:40.147Z,98962.07
2023-04-03T10:44:59.366Z,98964.76
2023-04-03T10:47:52.604Z,98967.96
2023-04-03T10:50:37.005Z,98972.92
2023-04-03T10:53:09.632Z,98974.91
2023-04-03T10:55:43.789Z,98973.84
2023-04-03T10:58:34.191Z,98972.54
2023-04-03T11:01:24.480Z,98972.64
2023-04-03T11:03:58.694Z,98974.40
2023-04-03T11:06:29.641Z,98974.88
2023-04-03T11:10:00.241Z,98975.86
2023-04-03T11:12:34.889Z,98973.04
2023-04-03T11:15:06.791Z,98975.15
2023-04-03T11:17:38.854Z,98976.17
2023-04-03T11:20:28.905Z,98975.34
2023-04-03T11:23:05.966Z,98978.27
2023-04-03T11:25:35.539Z,98979.27
2023-04-03T11:28:06.768Z,98983.50
2023-04-03T11:30:40.232Z,98986.02
2023-04-03T11:33:33.996Z,98986.73
2023-04-03T11:36:26.260Z,98985.55
2023-04-03T11:39:00.470Z,98987.63
2023-04-03T11:41:48.657Z,98989.17
2023-04-03T11:44:47.654Z,98990.33
2023-04-03T11:47:45.769Z,98994.90
2023-04-03T11:50:35.265Z,98995.76
2023-04-03T11:53:07.641Z,98996.27
2023-04-03T11:55:37.119Z,98996.04
2023-04-03T11:58:15.921Z,98993.51
2023-04-03T12:00:45.009Z,98996.80
2023-04-03T12:03:26.141Z,99000.39
2023-04-03T12:06:07.293Z,99000.58
2023-04-03T12:08:48.303Z,99004.94
2023-04-03T12:11:26.634Z,99006.45
2023-04-03T12:13:58.366Z,99009.98
2023-04-03T12:16:39.004Z,99011.89
2023-04-03T12:19:17.280Z,99009.70
2023-04-03T12:21:58.003Z,99018.02
2023-04-03T12:24:30.706Z,99021.88
2023-04-03T12:27:01.659Z,99024.09
2023-04-03T12:29:36.117Z,99026.80
2023-04-03T12:32:04.456Z,99023.77
2023-04-03T12:34:36.058Z,99027.83
2023-04-03T12:37:36.529Z,99033.73
2023-04-03T12:40:15.110Z,99034.48
2023-04-03T12:43:04.213Z,99040.39
2023-04-03T12:46:06.074Z,99037.86
2023-04-03T12:48:46.819Z,99044.55
2023-04-03T12:51:24.362Z,99047.67
2023-04-03T12:53:59.566Z,99049.80
2023-04-03T12:56:29.592Z,99050.95
2023-04-03T12:59:14.393Z,99053.61
2023-04-03T13:01:42.669Z,99059.87
2023-04-03T13:04:13.816Z,99062.56
2023-04-03T13:06:43.312Z,99061.95
2023-04-03T13:09:27.642Z,99066.17
2023-04-03T13:12:03.035Z,99069.71
2023-04-03T13:14:32.153Z,99073.17
2023-04-03T13:17:07.878Z,99067.88
2023-04-03T13:19:36.695Z,99079.57
2023-04-03T13:22:12.572Z,99081.10
2023-04-03T13:24:41.391Z,99083.73
2023-04-03T13:27:11.467Z,99087.55
2023-04-03T13:29:40.319Z,99086.02
2023-04-03T13:32:08.949Z,99097.38
2023-04-03T13:34:39.368Z,99098.50
2023-04-03T13:37:09.148Z,99105.25
2023-04-03T13:39:39.778Z,99111.82
2023-04-03T13:42:30.854Z,99110.10
2023-04-03T13:45:18.256Z,99117.30
2023-04-03T13:47:47.076Z,99125.76
2023-04-03T13:50:20.598Z,99127.58
2023-04-03T13:53:03.632Z,99132.65
2023-04-03T13:55:58.654Z,99135.41
2023-04-03T13:58:31.363Z,99134.99
2023-04-03T14:01:17.447Z,99137.85
2023-04-03T14:03:52.562Z,99146.71
2023-04-03T14:06:21.783Z,99151.13
2023-04-03T14:08:50.302Z,99156.31
2023-04-03T14:11:21.990Z,99162.01
2023-04-03T14:13:51.550Z,99167.24
2023-04-03T14:16:24.828Z,99168.29
2023-04-03T14:18:54.122Z,99172.89
2023-04-03T14:21:22.584Z,99172.79
2023-04-03T14:23:51.423Z,99175.36
2023-04-03T14:26:22.455Z,99179.64
2023-04-03T14:28:52.759Z,99182.85
2023-04-03T14:31:21.952Z,99187.52
2023-04-03T14:33:51.710Z,99189.58
2023-04-03T14:36:27.359Z,99193.81
2023-04-03T14:38:56.589Z,99192.72
2023-04-03T14:41:27.107Z,99193.98
2023-04-03T14:43:55.637Z,99195.92
2023-04-03T14:46:54.341Z,99198.17
2023-04-03T14:49:30.177Z,99197.98
2023-04-03T14:51:58.959Z,99201.63
2023-04-03T14:54:29.123Z,99202.17
2023-04-03T14:56:58.872Z,99208.14
2023-04-03T14:59:27.966Z,99211.02
2023-04-03T15:01:56.692Z,99214.23
2023-04-03T15:04:26.450Z,99215.90
2023-04-03T15:06:55.447Z,99220.59
2023-04-03T15:09:25.266Z,99219.64
2023-04-03T15:11:55.082Z,99227.10
2023-04-03T15:14:35.384Z,99233.77
2023-04-03T15:17:06.560Z,99237.17
2023-04-03T15:19:38.064Z,99239.48
2023-04-03T15:22:06.634Z,99238.86
2023-04-03T15:24:35.089Z,99237.71
2023-04-03T15:27:04.012Z,99243.45
2023-04-03T15:29:32.528Z,99243.59
2023-04-03T15:32:01.771Z,99245.30
2023-04-03T15:34:30.497Z,99251.00
2023-04-03T15:37:01.183Z,99250.48
2023-04-03T15:39:29.785Z,99250.05
2023-04-03T15:42:00.963Z,99250.73
2023-04-03T15:44:30.166Z,99255.97
2023-04-03T15:46:59.038Z,99257.73
2023-04-03T15:49:28.181Z,99259.76
2023-04-03T15:51:56.607Z,99257.77
2023-04-03T15:54:25.966Z,99259.43
2023-04-03T15:56:54.543Z,99262.41
2023-04-03T15:59:23.756Z,99262.96
2023-04-03T16:01:53.050Z,99263.66
2023-04-03T16:04:22.145Z,99267.09
2023-04-03T16:06:53.382Z,99270.13
2023-04-03T16:09:21.756Z,99272.21
2023-04-03T16:11:50.090Z,99277.21
2023-04-03T16:14:24.611Z,99277.10
2023-04-03T16:16:53.404Z,99281.39
2023-04-03T16:19:22.101Z,99279.52
2023-04-03T16:21:50.854Z,99282.66
2023-04-03T16:24:19.399Z,99289.19
2023-04-03T16:26:48.818Z,99291.92
2023-04-03T16:29:17.204Z,99297.42
2023-04-03T16:31:50.102Z,99299.48
2023-04-03T16:34:18.609Z,99300.52
2023-04-03T16:36:47.241Z,99300.13
2023-04-03T16:39:15.562Z,99298.88
2023-04-03T16:41:43.820Z,99298.27
2023-04-03T16:44:13.811Z,99300.52
2023-04-03T16:46:42.934Z,99302.01
2023-04-03T16:49:11.463Z,99300.71
2023-04-03T16:51:41.130Z,99305.33
2023-04-03T16:54:11.619Z,99313.91
2023-04-03T16:56:41.245Z,99315.51
2023-04-03T16:59:09.871Z,99319.91
2023-04-03T17:01:39.555Z,99324.94
2023-04-03T17:04:07.988Z,99325.75
2023-04-03T17:06:37.228Z,99330.50
2023-04-03T17:09:05.941Z,99330.04
2023-04-03T17:14:07.684Z,99349.40
2023-04-03T17:16:36.944Z,99347.96
2023-04-03T17:19:05.685Z,99353.42
2023-04-03T17:21:34.628Z,99356.14
2023-04-03T17:24:09.532Z,99358.86
2023-04-03T17:26:38.123Z,99358.22
2023-04-03T17:29:07.738Z,99361.95
2023-04-03T17:31:36.231Z,99364.73
2023-04-03T17:34:05.011Z,99361.17
2023-04-03T17:36:39.233Z,99365.56
2023-04-03T17:39:08.073Z,99373.71
2023-04-03T17:41:36.413Z,99377.37
2023-04-03T17:44:04.977Z,99378.77
2023-04-03T17:46:34.801Z,99383.67
2023-04-03T17:49:04.818Z,99385.45
2023-04-03T17:51:36.450Z,99386.09
2023-04-03T17:54:05.200Z,99387.48
2023-04-03T17:56:34.406Z,99392.17
2023-04-03T17:59:03.325Z,99393.57
2023-04-03T18:01:33.258Z,99394.84
2023-04-03T18:04:03.517Z,99393.95
2023-04-03T18:06:38.664Z,99397.91
2023-04-03T18:09:18.905Z,99399.75
2023-04-03T18:11:47.691Z,99403.18
2023-04-03T18:14:18.121Z,99405.70
2023-04-03T18:16:47.170Z,99404.45
2023-04-03T18:21:49.615Z,99413.47
2023-04-03T18:24:19.098Z,99415.91
2023-04-03T18:26:51.255Z,99416.11
2023-04-03T18:29:19.870Z,99410.77
2023-04-03T18:31:49.965Z,99416.63
2023-04-03T18:34:18.533Z,99422.56
2023-04-03T18:36:47.781Z,99427.14
2023-04-03T18:39:23.343Z,99430.59
2023-04-03T18:41:53.992Z,99428.98
2023-04-03T18:44:23.199Z,99425.88
2023-04-03T18:46:53.786Z,99428.61
2023-04-03T18:49:22.233Z,99430.77
2023-04-03T18:51:50.590Z,99437.79
2023-04-03T18:54:20.648Z,99440.61
2023-04-03T18:56:48.964Z,99439.80
2023-04-03T18:59:17.411Z,99443.68
2023-04-03T19:01:46.958Z,99445.55
2023-04-03T19:04:15.336Z,99447.00
2023-04-03T19:06:43.720Z,99452.00
2023-04-03T19:09:11.995Z,99447.55
2023-04-03T19:11:40.276Z,99448.88
2023-04-03T19:14:16.569Z,99452.24
2023-04-03T19:16:46.080Z,99453.46
2023-04-03T19:19:14.548Z,99451.69
2023-04-03T19:21:46.093Z,99455.39
2023-04-03T19:24:14.518Z,99456.63
2023-04-03T19:26:46.275Z,99460.42
2023-04-03T19:29:15.444Z,99462.34
2023-04-03T19:31:44.198Z,99462.88
2023-04-03T19:34:13.174Z,99464.07
2023-04-03T19:36:42.480Z,99458.64
2023-04-03T19:39:12.328Z,99460.85
2023-04-03T19:41:45.215Z,99460.30
2023-04-03T19:44:13.623Z,99454.67
2023-04-03T19:46:51.337Z,99452.89
2023-04-03T19:49:20.071Z,99447.44
2023-04-03T19:51:48.898Z,99442.77
2023-04-03T19:54:17.505Z,99441.64
2023-04-03T19:56:46.570Z,99438.31
2023-04-03T19:59:15.249Z,99438.84
2023-04-03T20:01:44.006Z,99442.56
2023-04-03T20:04:12.484Z,99444.77
2023-04-03T20:06:41.164Z,99451.01
2023-04-03T20:09:09.619Z,99452.63
2023-04-03T20:11:40.799Z,99458.69
2023-04-03T20:14:09.070Z,99455.48
2023-04-03T20:16:38.177Z,99460.67
2023-04-03T20:19:07.353Z,99461.96
2023-04-03T20:21:35.878Z,99460.25
2023-04-03T20:24:06.276Z,99461.52
2023-04-03T20:26:38.964Z,99463.30
2023-04-03T20:29:07.580Z,99468.65
2023-04-03T20:31:38.083Z,99473.34
2023-04-03T20:34:07.180Z,99478.05
2023-04-03T20:36:35.625Z,99479.64
2023-04-03T20:39:04.212Z,99482.61
2023-04-03T20:41:35.712Z,99478.47
2023-04-03T20:44:04.722Z,99482.67
2023-04-03T20:46:49.171Z,99480.65
2023-04-03T20:49:23.059Z,99484.10
2023-04-03T20:51:52.821Z,99482.02
2023-04-03T20:54:21.937Z,99484.11
2023-04-03T20:56:50.603Z,99487.52
2023-04-03T20:59:22.243Z,99483.52
2023-04-03T21:01:50.676Z,99484.59
2023-04-03T21:04:35.246Z,99484.33
2023-04-03T21:07:41.505Z,99484.40
2023-04-03T21:10:48.570Z,99490.59
2023-04-03T21:13:54.996Z,99496.77
2023-04-03T21:16:23.209Z,99501.52
2023-04-03T21:18:57.517Z,99499.98
2023-04-03T21:21:26.409Z,99502.79
2023-04-03T21:23:54.895Z,99504.79
2023-04-03T21:26:23.391Z,99507.02
2023-04-03T21:28:52.584Z,99503.65
2023-04-03T21:31:51.668Z,99502.34
2023-04-03T21:34:21.473Z,99504.02
2023-04-03T21:36:50.250Z,99500.38
2023-04-03T21:39:19.391Z,99505.33
2023-04-03T21:41:50.533Z,99509.84
2023-04-03T21:44:22.460Z,99509.23
2023-04-03T21:46:56.801Z,99517.74
2023-04-03T21:49:25.385Z,99518.56
2023-04-03T21:51:57.675Z,99518.23
2023-04-03T21:54:26.011Z,99515.53
2023-04-03T21:56:54.428Z,99519.20
2023-04-03T21:59:24.045Z,99519.88
2023-04-03T22:01:52.819Z,99517.67
2023-04-03T22:04:22.690Z,99515.16
2023-04-03T22:06:51.139Z,99520.16
2023-04-03T22:09:19.858Z,99522.28
2023-04-03T22:11:49.205Z,99519.58
2023-04-03T22:14:18.817Z,99520.14
2023-04-03T22:16:47.722Z,99521.52
2023-04-03T22:19:16.205Z,99523.70
2023-04-03T22:21:47.824Z,99524.23
2023-04-03T22:24:18.765Z,99524.66
2023-04-03T22:26:47.298Z,99519.62
2023-04-03T22:29:16.555Z,99517.04
2023-04-03T22:31:44.790Z,99513.23
2023-04-03T22:34:13.160Z,99506.83
2023-04-03T22:36:43.402Z,99505.70
2023-04-03T22:39:13.656Z,99504.30
2023-04-03T22:41:45.502Z,99510.29
2023-04-03T22:44:14.075Z,99506.23
2023-04-03T22:46:43.552Z,99501.90
2023-04-03T22:49:12.537Z,99504.73
2023-04-03T22:51:41.190Z,99505.58
2023-04-03T22:54:09.776Z,99507.48
2023-04-03T22:56:38.212Z,99505.30
2023-04-03T22:59:08.263Z,99507.39
2023-04-03T23:01:39.342Z,99509.10
2023-04-03T23:04:08.948Z,99516.71
2023-04-03T23:06:38.182Z,99520.70
2023-04-03T23:09:06.445Z,99522.67
2023-04-03T23:11:35.074Z,99521.67
2023-04-03T23:14:03.366Z,99524.84
2023-04-03T23:16:31.973Z,99526.89
2023-04-03T23:19:00.938Z,99525.52
2023-04-03T23:21:35.840Z,99521.47
2023-04-03T23:26:06.664Z,99518.81
2023-04-03T23:28:36.100Z,99508.96
2023-04-03T23:31:06.874Z,99509.73
2023-04-03T23:33:36.964Z,99506.31
2023-04-03T23:36:08.762Z,99512.85
2023-04-03T23:38:42.542Z,99510.23
2023-04-03T23:41:13.010Z,99518.19
2023-04-03T23:43:42.429Z,99512.70
2023-04-03T23:46:11.223Z,99518.27
2023-04-03T23:48:40.072Z,99517.95
2023-04-03T23:51:13.917Z,99518.25
2023-04-03T23:53:42.628Z,99514.49
2023-04-03T23:56:13.347Z,99517.42
2023-04-03T23:58:43.274Z,99516.42
